Wilkesboro, NC

10:57 AM EDT on March 28, 2015 (GMT -0400)
Bill's Backyard | | Change Station
CLOSE
Current Station
Personal Weather Station
Location: North Wilkesboro, NC
Elevation: 1247 ft
Nearby Weather Stations

Elev 1247 ft 36.17 °N, 81.21 °W | Updated 10 minutes ago

Clear
Clear
38.8 °F
Feels Like 34 °F
N
7.3
Wind Variable Wind from West

Today
High -- | Low -- °F
--% Chance of Precip.
Yesterday
High -- | Low -- °F
Precip. -- in
7:16 AM 7:43 PM
Waxing Gibbous, 63% visible
Pressure 30.11 in
Visibility 10.0 miles
Clouds Clear
Windchill 34 °F
Dew Point 15 °F
Humidity 37%
Rainfall 0.00 in
Snow Depth Not available.
UV 5 out of 12
Pollen 9.30 out of 12
Air Quality Not available.
Flu Activity Not available.
METAR KUKF 281435Z AUTO 32005KT 10SM CLR 01/M10 A3011 RMK AO2

More Conditions Fewer Conditions

Pressure 30.11 in
Visibility 10.0 miles
Clouds Clear
Windchill 34 °F
Dew Point 15 °F
Humidity 37%
Rainfall 0.00 in
Snow Depth Not available.
UV 5 out of 12
Pollen 9.30 out of 12
Air Quality Not available.
Flu Activity Not available.
METAR KUKF 281435Z AUTO 32005KT 10SM CLR 01/M10 A3011 RMK AO2

More Conditions Fewer Conditions

10-Day Weather Forecast

Almanac

Astronomy

Mar. 28, 2015 Rise Set
Actual Time
Civil Twilight
Nautical Twilight
Astronomical Twilight
Moon
Length of Visible Light
Length of Day
Tomorrow will be .
, % of the Moon is Illuminated

Today's Extremes

State Highs State Lows

Community

WunderPhotos

Upload Photos

1,808,991 photos uploaded!

WunderBlogs® & News

Nearby

Air Quality

  Air Quality AQ Index Pollutant
Not available.

Snow Depth

Station Depth Elevation

Earthquake Activity

City Distance Mag. Time & Date
Minimum magnitude displayed is 2.5.

Coastal Water Temperatures

Place Temperature

Stations

Nearby Weather Stations

Station Location Temp. Windchill Dew Point Humidity Wind Precip. Elev Updated Type